Time;durP1;ratioP1;P1;durP2;ratioP2;P2;SDS_P1;SDS_P2;PMS_P1;PMS_P2;Temp;Humidity;BMP_temperature;BMP_pressure;BME280_temperature;BME280_humidity;BME280_pressure;Samples;Min_cycle;Max_cycle;Signal;HPM_P1;HPM_P2
2022/06/09 00:01:14;;;;;;;22.65;9.00;;;;;;;11.95;100.00;100826.13;5116337;28;20102;-76
2022/06/09 00:03:44;;;;;;;25.92;7.95;;;;;;;11.94;100.00;100831.41;5115451;28;20069;-76
2022/06/09 00:06:11;;;;;;;21.77;8.15;;;;;;;11.94;100.00;100829.63;5116349;28;20038;-76
2022/06/09 00:08:41;;;;;;;39.92;8.98;;;;;;;11.98;100.00;100830.41;5115882;28;20023;-76
2022/06/09 00:11:08;;;;;;;27.98;8.82;;;;;;;11.98;100.00;100840.84;5115131;28;20039;-76
2022/06/09 00:13:35;;;;;;;29.05;9.60;;;;;;;12.01;100.00;100843.38;5115937;28;20531;-76
2022/06/09 00:16:01;;;;;;;36.00;9.57;;;;;;;12.01;100.00;100840.75;5115769;28;20055;-76
2022/06/09 00:18:27;;;;;;;33.70;8.98;;;;;;;12.01;100.00;100846.00;5115329;28;20054;-76
2022/06/09 00:20:52;;;;;;;38.67;8.27;;;;;;;12.04;100.00;100851.13;5115600;28;20036;-76
2022/06/09 00:23:18;;;;;;;38.80;9.15;;;;;;;12.03;100.00;100840.69;5115671;28;20019;-75
2022/06/09 00:25:44;;;;;;;26.15;8.88;;;;;;;11.99;100.00;100845.16;5114810;28;20028;-76
2022/06/09 00:28:10;;;;;;;26.98;8.98;;;;;;;12.02;100.00;100846.84;5115832;28;20088;-76
2022/06/09 00:30:35;;;;;;;30.42;8.93;;;;;;;12.00;100.00;100841.69;5115755;28;20409;-76
2022/06/09 00:33:01;;;;;;;27.02;8.40;;;;;;;12.01;100.00;100839.91;5114425;28;20452;-76
2022/06/09 00:35:27;;;;;;;31.52;8.30;;;;;;;12.01;100.00;100845.13;5115410;28;20055;-75
2022/06/09 00:37:52;;;;;;;24.27;8.15;;;;;;;12.01;100.00;100845.13;5115054;28;20023;-75
2022/06/09 00:40:18;;;;;;;28.95;8.23;;;;;;;11.95;100.00;100851.38;5114735;28;20055;-76
2022/06/09 00:42:43;;;;;;;27.98;8.50;;;;;;;11.95;100.00;100849.63;5115005;28;20074;-75
2022/06/09 00:45:25;;;;;;;29.83;8.07;;;;;;;11.89;100.00;100847.19;5115483;28;20035;-76
2022/06/09 00:47:53;;;;;;;28.15;7.55;;;;;;;11.83;100.00;100849.94;5114204;28;20111;-76
2022/06/09 00:50:21;;;;;;;28.40;8.00;;;;;;;11.77;100.00;100852.75;5115083;28;20027;-76
2022/06/09 00:52:54;;;;;;;26.60;7.50;;;;;;;11.70;100.00;100848.56;5114053;28;20020;-76
2022/06/09 00:55:23;;;;;;;28.88;7.60;;;;;;;11.62;100.00;100853.16;5115154;28;20083;-76
2022/06/09 00:57:54;;;;;;;34.28;8.25;;;;;;;11.62;100.00;100861.84;5114850;28;20407;-76
2022/06/09 01:00:27;;;;;;;35.90;8.07;;;;;;;11.57;100.00;100853.28;5114480;28;20031;-76
2022/06/09 01:02:56;;;;;;;33.40;8.40;;;;;;;11.56;100.00;100846.34;5114828;28;20024;-76
2022/06/09 01:05:25;;;;;;;34.50;9.00;;;;;;;11.57;100.00;100860.25;5115124;28;20036;-75
2022/06/09 01:07:54;;;;;;;31.00;8.15;;;;;;;11.56;100.00;100859.41;5113955;28;20088;-76
2022/06/09 01:10:19;;;;;;;38.75;9.60;;;;;;;11.55;100.00;100859.47;5114911;28;20023;-76
2022/06/09 01:12:47;;;;;;;38.83;9.00;;;;;;;11.57;100.00;100860.25;5114465;28;20032;-76
2022/06/09 01:15:21;;;;;;;36.65;9.52;;;;;;;11.61;100.00;100854.06;5114018;28;20027;-76
2022/06/09 01:18:07;;;;;;;29.60;8.70;;;;;;;11.61;100.00;100860.16;5114322;28;20076;-76
2022/06/09 01:20:46;;;;;;;34.45;9.13;;;;;;;11.65;100.00;100867.00;5114864;28;20024;-76
2022/06/09 01:23:42;;;;;;;31.73;9.25;;;;;;;11.67;100.00;100864.31;5114657;28;20048;-76
2022/06/09 01:26:36;;;;;;;33.83;9.30;;;;;;;11.69;100.00;100863.41;5114481;28;20478;-76
2022/06/09 01:29:28;;;;;;;36.83;10.40;;;;;;;11.70;100.00;100872.06;5113738;28;20062;-76
2022/06/09 01:32:02;;;;;;;40.88;9.98;;;;;;;11.69;100.00;100870.38;5114269;28;20412;-76
2022/06/09 01:34:30;;;;;;;30.15;10.55;;;;;;;11.71;100.00;100872.06;5114595;28;20035;-76
2022/06/09 01:36:58;;;;;;;41.67;10.18;;;;;;;11.70;100.00;100872.94;5113376;28;20035;-76
2022/06/09 01:39:42;;;;;;;39.65;9.88;;;;;;;11.71;100.00;100876.44;5114111;28;20463;-76
2022/06/09 01:42:25;;;;;;;41.78;10.32;;;;;;;11.76;100.00;100878.91;5113518;28;20110;-76
2022/06/09 01:44:56;;;;;;;42.85;10.50;;;;;;;11.77;100.00;100880.59;5113726;28;20031;-76
2022/06/09 01:47:26;;;;;;;55.10;11.32;;;;;;;11.75;100.00;100878.03;5114135;28;20373;-76
2022/06/09 01:49:57;;;;;;;37.60;10.07;;;;;;;11.75;100.00;100885.03;5112537;28;20023;-76
2022/06/09 01:52:25;;;;;;;46.05;11.07;;;;;;;11.75;100.00;100895.47;5114128;28;20030;-76
2022/06/09 01:54:52;;;;;;;50.33;11.18;;;;;;;11.71;100.00;100886.88;5113667;28;20035;-76
2022/06/09 01:57:24;;;;;;;42.70;11.02;;;;;;;11.70;100.00;100895.59;5113085;28;20043;-76
2022/06/09 01:59:59;;;;;;;39.15;10.60;;;;;;;11.68;100.00;100889.56;5113748;28;20027;-76
2022/06/09 02:02:28;;;;;;;42.60;9.90;;;;;;;11.64;100.00;100887.91;5113999;28;20020;-76
2022/06/09 02:05:01;;;;;;;38.00;9.68;;;;;;;11.60;100.00;100891.50;5112826;28;20016;-76
2022/06/09 02:07:29;;;;;;;35.97;10.73;;;;;;;11.59;100.00;100898.50;5113884;28;20024;-76
2022/06/09 02:09:55;;;;;;;30.42;10.07;;;;;;;11.54;100.00;100891.66;5113574;27;20019;-75
2022/06/09 02:12:27;;;;;;;39.97;10.68;;;;;;;11.53;100.00;100897.81;5112870;28;20485;-76
2022/06/09 02:14:57;;;;;;;36.78;11.07;;;;;;;11.49;100.00;100892.66;5113449;28;20102;-76
2022/06/09 02:17:23;;;;;;;48.70;11.70;;;;;;;11.51;100.00;100896.97;5112819;28;20390;-76
2022/06/09 02:19:51;;;;;;;41.25;12.52;;;;;;;11.51;100.00;100900.47;5113350;28;20401;-76
2022/06/09 02:22:17;;;;;;;47.70;12.52;;;;;;;11.47;100.00;100901.41;5113712;28;20053;-76
2022/06/09 02:24:42;;;;;;;43.53;11.73;;;;;;;11.47;100.00;100901.41;5112289;28;20467;-76
2022/06/09 02:27:08;;;;;;;46.35;12.05;;;;;;;11.44;100.00;100898.88;5113466;28;20032;-76
2022/06/09 02:29:34;;;;;;;44.80;11.95;;;;;;;11.43;100.00;100912.84;5113500;28;20047;-76
2022/06/09 02:31:59;;;;;;;42.00;12.23;;;;;;;11.39;100.00;100913.81;5112076;28;20020;-76
2022/06/09 02:34:25;;;;;;;51.33;12.20;;;;;;;11.37;100.00;100913.84;5113333;28;20020;-76
2022/06/09 02:36:50;;;;;;;54.92;12.77;;;;;;;11.35;100.00;100922.63;5112937;28;20519;-76
2022/06/09 02:39:16;;;;;;;40.40;11.90;;;;;;;11.32;100.00;100926.19;5112730;28;20065;-76
2022/06/09 02:41:41;;;;;;;48.63;11.75;;;;;;;11.30;100.00;100920.13;5112927;28;20027;-76
2022/06/09 02:44:07;;;;;;;43.33;12.38;;;;;;;11.28;100.00;100926.28;5113640;28;20079;-76
2022/06/09 02:46:32;;;;;;;41.72;12.30;;;;;;;11.28;100.00;100926.28;5112475;28;20479;-76
2022/06/09 02:48:58;;;;;;;44.25;13.02;;;;;;;11.27;100.00;100930.66;5112839;28;20482;-76
2022/06/09 02:51:27;;;;;;;48.95;13.20;;;;;;;11.24;100.00;100933.31;5113076;28;20035;-76
2022/06/09 02:53:57;;;;;;;44.38;13.70;;;;;;;11.24;100.00;100928.97;5112293;28;20023;-76
2022/06/09 02:56:24;;;;;;;44.22;13.18;;;;;;;11.21;100.00;100938.63;5112977;28;20043;-76
2022/06/09 02:58:49;;;;;;;44.90;13.10;;;;;;;11.22;100.00;100935.13;5112822;28;20039;-75
2022/06/09 03:01:15;;;;;;;47.72;14.50;;;;;;;11.21;100.00;100938.63;5112740;28;20381;-76
2022/06/09 03:03:40;;;;;;;45.20;13.30;;;;;;;11.25;100.00;100940.28;5116839;28;20364;-76
2022/06/09 03:06:06;;;;;;;41.80;13.98;;;;;;;11.23;100.00;100940.31;5117480;28;20027;-76
2022/06/09 03:08:31;;;;;;;49.95;14.02;;;;;;;11.23;100.00;100953.34;5116605;28;20049;-76
2022/06/09 03:10:57;;;;;;;45.60;14.48;;;;;;;11.22;100.00;100948.19;5117084;28;20035;-76
2022/06/09 03:13:22;;;;;;;53.33;14.45;;;;;;;11.24;100.00;100954.19;5116288;28;20020;-76
2022/06/09 03:15:48;;;;;;;52.08;14.95;;;;;;;11.24;100.00;100959.44;5116753;28;20073;-76
2022/06/09 03:18:14;;;;;;;53.10;15.07;;;;;;;11.20;100.00;100963.00;5117052;28;20051;-76
2022/06/09 03:20:40;;;;;;;44.35;13.75;;;;;;;11.19;100.00;100971.75;5115937;28;20635;-76
2022/06/09 03:23:06;;;;;;;47.60;14.05;;;;;;;11.13;100.00;100972.75;5116875;28;20028;-76
2022/06/09 03:25:32;;;;;;;54.22;14.15;;;;;;;11.13;100.00;100982.31;5117016;28;20020;-76
2022/06/09 03:27:57;;;;;;;50.33;14.07;;;;;;;11.11;100.00;100990.16;5115798;28;20020;-76
2022/06/09 03:30:22;;;;;;;44.08;14.43;;;;;;;11.09;100.00;100985.91;5116811;28;20023;-76
2022/06/09 03:32:48;;;;;;;48.40;14.27;;;;;;;11.06;100.00;100993.81;5116281;28;20487;-76
2022/06/09 03:35:14;;;;;;;50.83;14.15;;;;;;;11.05;100.00;100979.88;5115919;28;20024;-76
2022/06/09 03:37:40;;;;;;;63.30;15.32;;;;;;;11.01;100.00;100994.75;5116597;28;20020;-76
2022/06/09 03:40:08;;;;;;;57.72;14.88;;;;;;;10.99;100.00;101000.91;5116688;28;20023;-76
2022/06/09 03:42:34;;;;;;;44.15;13.65;;;;;;;10.98;100.00;101005.25;5115875;28;20024;-76
2022/06/09 03:44:59;;;;;;;58.13;14.30;;;;;;;10.96;100.00;101007.03;5116284;28;20027;-76
2022/06/09 03:47:25;;;;;;;47.53;14.82;;;;;;;10.97;100.00;101011.34;5116415;28;20043;-76
2022/06/09 03:49:50;;;;;;;51.40;14.65;;;;;;;10.96;100.00;101004.44;5115509;28;20035;-76
2022/06/09 03:52:16;;;;;;;59.67;14.45;;;;;;;10.93;100.00;101012.34;5116408;28;20030;-76
2022/06/09 03:54:41;;;;;;;49.88;15.10;;;;;;;10.98;100.00;101017.44;5115918;28;20018;-76
2022/06/09 03:57:06;;;;;;;53.13;14.82;;;;;;;11.01;100.00;101020.81;5115383;28;20043;-76
2022/06/09 03:59:32;;;;;;;51.92;15.60;;;;;;;11.05;100.00;101025.97;5116287;28;20023;-76
2022/06/09 04:01:57;;;;;;;47.00;14.98;;;;;;;11.06;100.00;101025.09;5115873;28;20390;-76
2022/06/09 04:04:23;;;;;;;51.15;16.63;;;;;;;11.12;100.00;101035.41;5115519;28;20035;-76
2022/06/09 04:06:49;;;;;;;53.20;16.13;;;;;;;11.13;100.00;101034.50;5115675;27;20104;-76
2022/06/09 04:09:15;;;;;;;53.80;16.30;;;;;;;11.13;100.00;101042.34;5115966;28;20026;-76
2022/06/09 04:11:41;;;;;;;57.38;16.73;;;;;;;11.12;100.00;101036.25;5114779;28;20077;-76
2022/06/09 04:14:06;;;;;;;56.60;16.13;;;;;;;11.09;100.00;101043.31;5115425;28;20035;-76
2022/06/09 04:16:37;;;;;;;64.15;16.30;;;;;;;11.05;100.00;101041.63;5115777;28;20035;-76
2022/06/09 04:19:07;;;;;;;50.92;15.77;;;;;;;11.04;100.00;101060.78;5115664;28;20379;-76
2022/06/09 04:21:34;;;;;;;47.67;15.48;;;;;;;10.97;100.00;101054.84;5115738;28;20536;-76
2022/06/09 04:24:00;;;;;;;53.90;16.27;;;;;;;10.97;100.00;101055.72;5114780;28;20527;-76
2022/06/09 04:26:29;;;;;;;46.78;15.30;;;;;;;11.02;100.00;101053.88;5115724;28;20030;-76
2022/06/09 04:28:55;;;;;;;53.78;14.77;;;;;;;11.04;100.00;101061.66;5115426;28;20024;-76
2022/06/09 04:31:20;;;;;;;39.58;15.10;;;;;;;11.02;100.00;101053.88;5114661;28;20387;-76
2022/06/09 04:33:46;;;;;;;55.58;15.95;;;;;;;11.02;100.00;101058.25;5115479;28;20015;-76
2022/06/09 04:36:13;;;;;;;49.63;15.90;;;;;;;11.02;100.00;101061.69;5115633;28;20092;-76
2022/06/09 04:38:39;;;;;;;57.03;16.13;;;;;;;10.99;100.00;101063.53;5114701;28;20432;-76
2022/06/09 04:41:10;;;;;;;57.70;15.90;;;;;;;11.05;100.00;101070.31;5115166;28;20027;-76
2022/06/09 04:43:40;;;;;;;53.08;16.33;;;;;;;11.11;100.00;101072.81;5115379;28;20020;-76
2022/06/09 04:46:07;;;;;;;55.05;17.02;;;;;;;11.15;100.00;101071.84;5114753;27;20016;-76
2022/06/09 04:48:33;;;;;;;60.30;17.83;;;;;;;11.21;100.00;101074.31;5115446;28;20371;-76
2022/06/09 04:50:59;;;;;;;51.33;18.10;;;;;;;11.24;100.00;101071.63;5115087;28;20371;-76
2022/06/09 04:53:25;;;;;;;52.95;17.83;;;;;;;11.27;100.00;101079.41;5114419;28;20023;-76
2022/06/09 04:55:51;;;;;;;51.03;18.85;;;;;;;11.29;100.00;101071.56;5114632;28;20044;-76
2022/06/09 04:58:17;;;;;;;63.15;18.77;;;;;;;11.26;100.00;101082.91;5115070;28;20036;-76
2022/06/09 05:00:42;;;;;;;58.72;18.17;;;;;;;11.24;100.00;101088.16;5114101;28;20016;-76
2022/06/09 05:03:13;;;;;;;54.40;17.05;;;;;;;11.27;100.00;101095.06;5115205;28;20023;-76
2022/06/09 05:05:42;;;;;;;69.32;17.90;;;;;;;11.37;100.00;101085.28;5114977;28;20035;-76
2022/06/09 05:08:07;;;;;;;58.20;18.80;;;;;;;11.44;100.00;101103.41;5114055;28;20031;-76
2022/06/09 05:10:34;;;;;;;68.65;20.67;;;;;;;11.54;100.00;101106.63;5114839;28;20022;-76
2022/06/09 05:12:59;;;;;;;60.25;21.17;;;;;;;11.73;100.00;101114.88;5113541;28;20047;-76
2022/06/09 05:15:25;;;;;;;65.75;22.30;;;;;;;11.91;100.00;101119.72;5114976;28;20020;-76
2022/06/09 05:17:51;;;;;;;66.10;22.40;;;;;;;12.17;100.00;101124.28;5114554;28;20064;-76
2022/06/09 05:20:22;;;;;;;77.63;23.17;;;;;;;12.42;100.00;101123.63;5113957;28;20027;-76
2022/06/09 05:22:47;;;;;;;86.90;25.13;;;;;;;12.68;100.00;101130.78;5114480;28;20020;-76
2022/06/09 05:25:14;;;;;;;79.82;24.65;;;;;;;12.86;100.00;101129.41;5113701;28;20028;-76
2022/06/09 05:27:40;;;;;;;80.85;24.45;;;;;;;12.82;100.00;101112.94;5113663;28;20023;-76
2022/06/09 05:30:11;;;;;;;77.35;23.17;;;;;;;12.87;100.00;101131.13;5114601;28;20049;-76
2022/06/09 05:32:36;;;;;;;63.85;21.83;;;;;;;12.81;100.00;101144.38;5114445;28;20059;-76
2022/06/09 05:35:02;;;;;;;67.93;20.30;;;;;;;12.71;100.00;101149.00;5113446;28;20019;-76
2022/06/09 05:44:50;;;;;;;56.42;18.48;;;;;;;12.60;100.00;101157.16;5114430;28;20026;-76
2022/06/09 05:45:41;;;;;;;50.50;17.58;;;;;;;12.36;100.00;101163.91;5114261;28;20378;-76
2022/06/09 05:48:06;;;;;;;52.10;18.33;;;;;;;12.38;100.00;101167.31;5113390;28;20028;-76
2022/06/09 05:50:32;;;;;;;48.25;18.38;;;;;;;12.44;100.00;101168.06;5114017;28;20016;-76
2022/06/09 05:52:57;;;;;;;66.10;19.52;;;;;;;12.58;100.00;101173.78;5113759;28;20066;-76
2022/06/09 05:55:22;;;;;;;54.65;20.58;;;;;;;12.69;100.00;101176.97;5112985;28;20897;-76
2022/06/09 05:57:47;;;;;;;62.10;21.85;;;;;;;12.84;100.00;101176.53;5113649;28;20024;-76
2022/06/09 06:00:13;;;;;;;62.10;23.52;;;;;;;12.98;100.00;101183.16;5113921;28;20027;-76
2022/06/09 06:02:38;;;;;;;62.05;23.27;;;;;;;13.09;100.00;101188.97;5113011;28;20036;-76
2022/06/09 06:05:04;;;;;;;59.08;22.38;;;;;;;13.20;100.00;101205.22;5113528;28;20034;-76
2022/06/09 06:07:29;;;;;;;60.80;23.45;;;;;;;13.26;100.00;101193.75;5114037;28;20022;-76
2022/06/09 06:09:55;;;;;;;55.05;21.63;;;;;;;13.34;100.00;101202.22;5112755;28;20039;-76
2022/06/09 06:12:20;;;;;;;52.75;21.80;;;;;;;13.41;100.00;101202.94;5113487;28;20035;-76
2022/06/09 06:14:46;;;;;;;48.03;21.48;;;;;;;13.47;100.00;101210.56;5113522;28;20035;-76
2022/06/09 06:17:11;;;;;;;50.17;20.90;;;;;;;13.39;100.00;101213.44;5112823;28;20019;-76
2022/06/09 06:19:36;;;;;;;55.95;21.10;;;;;;;13.42;100.00;101209.88;5113457;28;20019;-76
2022/06/09 06:22:02;;;;;;;47.17;20.02;;;;;;;13.49;100.00;101216.63;5113421;28;20089;-76
2022/06/09 06:24:27;;;;;;;42.53;20.38;;;;;;;13.53;100.00;101220.88;5112960;28;20439;-76
2022/06/09 06:26:53;;;;;;;47.08;20.60;;;;;;;13.57;100.00;101225.13;5113260;28;20058;-76
2022/06/09 06:29:22;;;;;;;39.38;18.38;;;;;;;13.65;100.00;101228.38;5113494;28;20024;-76
2022/06/09 06:31:48;;;;;;;36.50;18.42;;;;;;;13.66;100.00;101232.69;5112216;28;20110;-76
2022/06/09 06:34:13;;;;;;;41.90;18.85;;;;;;;13.77;100.00;101235.88;5113439;28;20099;-76
2022/06/09 06:36:39;;;;;;;45.45;20.08;;;;;;;13.80;100.00;101230.53;5113398;28;20463;-76
2022/06/09 06:39:04;;;;;;;44.47;19.63;;;;;;;13.85;100.00;101243.50;5112423;28;20463;-76
2022/06/09 06:41:30;;;;;;;41.22;16.58;;;;;;;13.87;100.00;101246.94;5113324;28;20019;-76
2022/06/09 06:43:56;;;;;;;39.22;17.45;;;;;;;14.00;100.00;101250.88;5113017;28;20029;-76
2022/06/09 06:46:21;;;;;;;38.70;16.70;;;;;;;14.09;100.00;101252.34;5112584;28;20031;-76
2022/06/09 06:48:47;;;;;;;33.90;16.50;;;;;;;14.11;100.00;101253.16;5112810;28;20096;-76
2022/06/09 06:51:13;;;;;;;34.88;14.60;;;;;;;14.19;100.00;101263.41;5113276;28;20035;-76
2022/06/09 06:53:39;;;;;;;30.10;14.18;;;;;;;14.26;100.00;101268.41;5112683;28;20050;-76
2022/06/09 06:56:05;;;;;;;28.00;14.00;;;;;;;14.33;100.00;101268.22;5112660;28;20055;-76
2022/06/09 06:58:31;;;;;;;33.22;13.23;;;;;;;14.33;100.00;101268.22;5112414;28;20020;-75
2022/06/09 07:00:58;;;;;;;26.98;13.10;;;;;;;14.36;100.00;101266.34;5112887;28;20024;-75
2022/06/09 07:03:23;;;;;;;26.17;11.65;;;;;;;14.40;100.00;101274.97;5113075;28;20032;-76
2022/06/09 07:05:49;;;;;;;26.40;13.00;;;;;;;14.42;100.00;101274.03;5112016;28;20386;-76
2022/06/09 07:08:16;;;;;;;27.17;12.85;;;;;;;14.39;100.00;101282.00;5113261;28;20076;-76
2022/06/09 07:10:43;;;;;;;26.50;11.25;;;;;;;14.32;100.00;101283.06;5112629;28;20459;-76
2022/06/09 07:13:08;;;;;;;28.20;12.68;;;;;;;14.24;100.00;101285.97;5112157;28;20027;-76
2022/06/09 07:15:34;;;;;;;28.02;11.98;;;;;;;14.31;100.00;101288.38;5112981;28;20023;-75
2022/06/09 07:17:59;;;;;;;28.80;13.43;;;;;;;14.43;100.00;101290.63;5112656;28;20034;-76
2022/06/09 07:20:25;;;;;;;24.65;12.27;;;;;;;14.57;100.00;101303.31;5112343;28;20375;-76
2022/06/09 07:22:51;;;;;;;26.92;12.90;;;;;;;14.68;100.00;101299.44;5112808;28;20486;-75
2022/06/09 07:25:23;;;;;;;28.42;12.82;;;;;;;14.78;100.00;101310.50;5113053;28;20036;-76
2022/06/09 07:27:53;;;;;;;25.27;11.55;;;;;;;14.85;100.00;101314.63;5111937;28;20028;-76
2022/06/09 07:30:20;;;;;;;20.48;11.27;;;;;;;14.96;100.00;101316.88;5113064;28;20030;-75
2022/06/09 07:32:46;;;;;;;17.52;9.05;;;;;;;14.99;100.00;101311.53;5112837;28;20120;-75
2022/06/09 07:35:15;;;;;;;14.57;9.13;;;;;;;15.08;100.00;101310.38;5112359;28;20099;-75
2022/06/09 07:37:41;;;;;;;13.35;7.05;;;;;;;15.18;100.00;101317.84;5112524;28;20038;-75
2022/06/09 07:40:07;;;;;;;8.10;5.50;;;;;;;15.34;100.00;101307.66;5112785;28;20020;-75
2022/06/09 07:42:32;;;;;;;12.70;5.43;;;;;;;15.60;100.00;101304.09;5112147;28;20020;-76
2022/06/09 07:44:58;;;;;;;9.70;4.03;;;;;;;15.64;100.00;101316.19;5112407;28;20467;-75
2022/06/09 07:47:24;;;;;;;13.63;5.05;;;;;;;15.78;100.00;101318.34;5113304;28;20077;-75
2022/06/09 07:49:50;;;;;;;8.30;5.05;;;;;;;15.86;100.00;101310.19;5115553;28;20030;-75
2022/06/09 07:52:15;;;;;;;9.80;4.47;;;;;;;15.95;100.00;101319.47;5116527;28;20387;-75
2022/06/09 07:54:41;;;;;;;6.22;3.97;;;;;;;15.96;100.00;101324.69;5115529;28;20383;-75
2022/06/09 07:57:07;;;;;;;7.20;3.40;;;;;;;15.95;100.00;101325.59;5116294;28;20054;-75
2022/06/09 07:59:34;;;;;;;9.15;3.75;;;;;;;16.01;100.00;101330.63;5116204;28;20475;-76
2022/06/09 08:01:59;;;;;;;7.78;3.45;;;;;;;16.15;100.00;101328.31;5115604;28;20488;-75
2022/06/09 08:04:24;;;;;;;4.88;3.72;;;;;;;16.29;100.00;101329.56;5116329;28;20463;-75
2022/06/09 08:06:50;;;;;;;5.85;3.35;;;;;;;16.42;100.00;101325.53;5116002;28;20051;-75
2022/06/09 08:09:15;;;;;;;11.63;3.90;;;;;;;16.48;100.00;101341.06;5115712;28;20051;-75
2022/06/09 08:11:40;;;;;;;9.02;3.35;;;;;;;16.50;100.00;101338.34;5115713;27;20034;-75
2022/06/09 08:14:08;;;;;;;6.80;3.47;;;;;;;16.57;100.00;101334.56;5115949;28;20052;-75
2022/06/09 08:16:33;;;;;;;7.80;3.60;;;;;;;16.53;100.00;101343.50;5115376;28;20019;-75
2022/06/09 08:18:59;;;;;;;8.05;3.38;;;;;;;16.45;100.00;101345.56;5115510;28;20092;-75
2022/06/09 08:21:26;;;;;;;8.10;2.83;;;;;;;16.43;100.00;101352.69;5116018;28;20105;-75
2022/06/09 08:23:52;;;;;;;7.05;3.00;;;;;;;16.31;100.00;101348.75;5114743;28;20044;-75
2022/06/09 08:26:18;;;;;;;5.43;3.20;;;;;;;16.28;100.00;101352.34;5115817;28;20473;-75
2022/06/09 08:28:43;;;;;;;6.97;3.28;;;;;;;16.32;100.00;101366.28;5115306;28;20047;-75
2022/06/09 08:31:12;;;;;;;3.50;2.60;;;;;;;16.41;100.00;101363.25;5114957;28;20106;-75
2022/06/09 08:33:38;;;;;;;7.25;2.83;;;;;;;16.41;100.00;101372.94;5115652;28;20034;-75
2022/06/09 08:36:03;;;;;;;6.93;3.05;;;;;;;16.35;100.00;101371.41;5115422;28;20024;-75
2022/06/09 08:38:29;;;;;;;7.90;3.10;;;;;;;16.39;100.00;101373.00;5114694;28;20053;-75
2022/06/09 08:41:01;;;;;;;7.57;3.40;;;;;;;16.45;100.00;101370.13;5115489;27;20023;-75
2022/06/09 08:43:49;;;;;;;5.90;3.30;;;;;;;16.52;100.00;101373.38;5116033;28;20094;-75
2022/06/09 08:46:30;;;;;;;5.43;3.20;;;;;;;16.65;100.00;101382.50;5114903;28;20027;-75
2022/06/09 08:49:00;;;;;;;8.07;3.00;;;;;;;17.04;100.00;101381.81;5114935;28;20020;-75
2022/06/09 08:51:40;;;;;;;7.28;2.95;;;;;;;17.39;100.00;101377.66;5114377;28;20112;-75
2022/06/09 08:54:18;;;;;;;8.35;3.53;;;;;;;17.62;100.00;101383.72;5115604;28;20038;-74
2022/06/09 08:56:45;;;;;;;8.18;3.30;;;;;;;17.65;100.00;101384.44;5115204;28;20052;-75
2022/06/09 08:59:15;;;;;;;8.70;3.28;;;;;;;17.61;100.00;101388.13;5113480;28;20031;-75
2022/06/09 09:01:47;;;;;;;7.65;3.38;;;;;;;17.51;100.00;101386.81;5115182;28;20103;-75
2022/06/09 09:04:21;;;;;;;5.65;3.85;;;;;;;17.34;100.00;101405.16;5114991;28;20020;-75
2022/06/09 09:07:20;;;;;;;5.40;3.20;;;;;;;17.31;100.00;101400.88;5114021;28;20064;-75
2022/06/09 09:09:47;;;;;;;7.22;3.75;;;;;;;17.51;100.00;101402.63;5115006;28;20103;-75
2022/06/09 09:12:42;;;;;;;6.25;3.80;;;;;;;17.76;100.00;101400.69;5114076;28;20051;-75
2022/06/09 09:15:27;;;;;;;7.20;3.90;;;;;;;17.77;100.00;101396.25;5114948;28;20044;-75
2022/06/09 09:18:14;;;;;;;6.55;3.67;;;;;;;17.59;100.00;101415.47;5114915;28;20038;-75
2022/06/09 09:20:49;;;;;;;6.53;4.05;;;;;;;17.33;100.00;101420.13;5113885;28;20034;-75
2022/06/09 09:23:17;;;;;;;6.85;3.70;;;;;;;16.96;100.00;101418.16;5114929;28;20050;-75
2022/06/09 09:26:01;;;;;;;6.10;3.60;;;;;;;16.70;100.00;101419.16;5114702;28;20095;-74
2022/06/09 09:28:37;;;;;;;6.97;3.40;;;;;;;16.56;100.00;101428.47;5113949;28;20086;-74
2022/06/09 09:31:22;;;;;;;6.63;3.50;;;;;;;16.73;100.00;101425.16;5114135;28;20023;-75
2022/06/09 09:33:48;;;;;;;6.78;3.63;;;;;;;17.04;100.00;101424.81;5113734;28;20031;-75
2022/06/09 09:36:37;;;;;;;4.82;3.42;;;;;;;17.39;100.00;101427.75;5114301;28;20019;-75
2022/06/09 09:39:11;;;;;;;6.18;3.75;;;;;;;17.50;100.00;101430.78;5114003;28;20031;-75
2022/06/09 09:41:38;;;;;;;5.82;3.78;;;;;;;17.44;100.00;101440.75;5113436;28;20051;-75
2022/06/09 09:44:22;;;;;;;8.27;3.60;;;;;;;17.31;100.00;101437.75;5114145;28;20110;-75
2022/06/09 09:46:51;;;;;;;5.65;3.90;;;;;;;17.00;100.00;101448.69;5114165;28;20039;-75
2022/06/09 09:49:22;;;;;;;8.27;4.00;;;;;;;17.05;100.00;101439.69;5113452;28;20532;-75
2022/06/09 09:51:49;;;;;;;7.78;4.50;;;;;;;17.29;99.54;101447.50;5113796;28;20443;-75
2022/06/09 09:54:31;;;;;;;8.32;4.07;;;;;;;17.65;100.00;101444.22;5113236;28;20031;-75
2022/06/09 09:57:15;;;;;;;7.78;4.57;;;;;;;18.33;99.81;101442.94;5113527;28;20446;-75
2022/06/09 09:59:51;;;;;;;11.23;6.22;;;;;;;19.10;96.73;101442.81;5113843;28;20035;-75
2022/06/09 10:08:40;;;;;;;5.43;4.35;;;;;;;18.03;99.15;101453.13;5114395;28;20168;-75
2022/06/09 10:14:18;;;;;;;6.55;5.03;;;;;;;16.87;100.00;101473.81;5113760;28;20038;-75
2022/06/09 10:16:50;;;;;;;9.45;6.07;;;;;;;16.49;100.00;101490.16;5112805;28;20027;-75
2022/06/09 10:19:19;;;;;;;6.50;4.75;;;;;;;15.97;100.00;101497.31;5113597;28;20026;-75
2022/06/09 10:21:52;;;;;;;6.35;4.00;;;;;;;15.74;100.00;101487.63;5113205;28;20024;-75
2022/06/09 10:24:49;;;;;;;6.50;3.95;;;;;;;15.71;100.00;101486.88;5112877;28;20034;-75
2022/06/09 10:27:19;;;;;;;6.25;4.28;;;;;;;15.84;100.00;101491.63;5107372;28;20036;-74
2022/06/09 10:30:16;;;;;;;6.75;5.28;;;;;;;16.17;100.00;101490.50;5112293;28;20027;-75
2022/06/09 10:32:56;;;;;;;6.60;5.20;;;;;;;16.45;100.00;101496.44;5067650;28;20479;-75
2022/06/09 10:35:32;;;;;;;9.98;7.75;;;;;;;16.77;100.00;101497.88;5113418;28;20430;-75
2022/06/09 10:38:12;;;;;;;13.95;7.18;;;;;;;17.07;100.00;101494.97;5112262;28;20468;-75
2022/06/09 10:40:42;;;;;;;11.38;7.88;;;;;;;17.34;100.00;101500.88;5113520;28;20030;-74
2022/06/09 10:43:26;;;;;;;11.48;9.10;;;;;;;17.98;100.00;101490.28;5113583;28;20019;-74
2022/06/09 10:46:09;;;;;;;12.88;8.23;;;;;;;18.83;100.00;101495.19;5112849;28;20038;-85
2022/06/09 10:57:56;;;;;;;9.52;7.55;;;;;;;19.53;88.66;101504.09;5112651;28;20131;-75
2022/06/09 11:00:45;;;;;;;9.45;7.30;;;;;;;19.19;94.90;101507.56;5113206;28;20038;-74
2022/06/09 11:03:15;;;;;;;9.73;7.25;;;;;;;19.10;88.35;101508.88;5113346;28;20039;-75
2022/06/09 11:06:12;;;;;;;9.90;7.88;;;;;;;19.23;93.24;101509.13;5111975;28;20455;-75
2022/06/09 11:09:11;;;;;;;9.90;5.40;;;;;;;19.55;91.15;101518.09;5113428;28;20028;-75
2022/06/09 11:11:46;;;;;;;10.88;5.03;;;;;;;20.26;86.83;101509.19;5112438;28;20071;-75
2022/06/09 11:14:36;;;;;;;6.88;4.32;;;;;;;20.51;87.35;101522.84;5113241;28;20026;-75
2022/06/09 11:17:12;;;;;;;10.32;4.15;;;;;;;20.86;88.02;101520.03;5112782;28;20031;-75
2022/06/09 11:19:37;;;;;;;8.18;4.55;;;;;;;21.42;85.12;101523.09;5112124;28;20024;-75
2022/06/09 11:22:11;;;;;;;5.90;3.53;;;;;;;21.86;81.20;101514.28;5112880;28;20073;-75
2022/06/09 11:24:43;;;;;;;5.68;4.70;;;;;;;21.24;74.18;101525.81;5117062;28;20047;-75
2022/06/09 11:27:20;;;;;;;7.47;3.40;;;;;;;20.34;79.57;101529.03;5116517;28;20051;-75
2022/06/09 11:29:54;;;;;;;7.47;3.83;;;;;;;19.53;79.00;101525.25;5116642;28;20035;-75
2022/06/09 11:32:38;;;;;;;;;;;;;;;19.20;89.52;101532.22;5117484;28;20043;-75
2022/06/09 11:35:15;;;;;;;8.52;4.05;;;;;;;18.45;89.52;101539.22;5116182;28;20367;-75
2022/06/09 11:37:47;;;;;;;8.27;4.28;;;;;;;18.11;93.14;101547.75;5116570;28;20051;-75
2022/06/09 11:40:29;;;;;;;6.60;3.83;;;;;;;17.92;89.84;101553.84;5116116;28;20042;-75
2022/06/09 11:43:06;;;;;;;12.10;4.18;;;;;;;17.75;89.39;101543.94;5116536;27;20043;-75
2022/06/09 11:45:40;;;;;;;11.13;4.03;;;;;;;17.60;89.62;101543.75;5116762;28;20019;-75